createdAt,value
2022-11-03T00:01:13.154Z,100744.56
2022-11-03T00:03:41.005Z,100735.41
2022-11-03T00:06:09.373Z,100735.53
2022-11-03T00:08:40.335Z,100724.75
2022-11-03T00:11:11.108Z,100719.56
2022-11-03T00:13:40.543Z,100717.97
2022-11-03T00:16:09.820Z,100721.16
2022-11-03T00:18:39.938Z,100721.91
2022-11-03T00:21:09.268Z,100712.94
2022-11-03T00:23:38.776Z,100714.09
2022-11-03T00:26:09.212Z,100703.63
2022-11-03T00:28:37.912Z,100703.41
2022-11-03T00:31:10.053Z,100693.50
2022-11-03T00:33:40.412Z,100686.75
2022-11-03T00:36:09.850Z,100689.31
2022-11-03T00:38:37.618Z,100688.91
2022-11-03T00:41:06.835Z,100685.63
2022-11-03T00:43:36.163Z,100674.97
2022-11-03T00:46:05.008Z,100669.56
2022-11-03T00:48:34.102Z,100666.38
2022-11-03T00:51:05.418Z,100669.31
2022-11-03T00:53:34.465Z,100667.16
2022-11-03T00:56:03.199Z,100659.13
2022-11-03T00:58:31.395Z,100657.50
2022-11-03T01:01:04.687Z,100657.31
2022-11-03T01:03:34.956Z,100661.13
2022-11-03T01:06:23.961Z,100650.19
2022-11-03T01:08:51.734Z,100648.69
2022-11-03T01:11:40.095Z,100645.69
2022-11-03T01:14:08.476Z,100627.03
2022-11-03T01:16:36.217Z,100623.41
2022-11-03T01:19:04.255Z,100607.38
2022-11-03T01:21:33.318Z,100608.66
2022-11-03T01:24:02.488Z,100609.41
2022-11-03T01:26:30.286Z,100609.41
2022-11-03T01:29:00.384Z,100601.03
2022-11-03T01:31:29.200Z,100600.38
2022-11-03T01:33:57.871Z,100598.06
2022-11-03T01:36:26.241Z,100589.41
2022-11-03T01:38:56.796Z,100578.69
2022-11-03T01:41:28.515Z,100563.56
2022-11-03T01:44:25.493Z,100565.06
2022-11-03T01:46:58.031Z,100567.28
2022-11-03T01:49:31.448Z,100548.28
2022-11-03T01:52:02.088Z,100545.53
2022-11-03T01:54:33.080Z,100544.34
2022-11-03T01:57:01.740Z,100538.00
2022-11-03T01:59:29.915Z,100545.97
2022-11-03T02:01:57.723Z,100523.91
2022-11-03T02:04:30.744Z,100522.16
2022-11-03T02:07:09.780Z,100527.34
2022-11-03T02:09:38.952Z,100522.34
2022-11-03T02:12:08.730Z,100514.53
2022-11-03T02:14:40.240Z,100506.75
2022-11-03T02:17:10.556Z,100498.47
2022-11-03T02:19:42.944Z,100502.09
2022-11-03T02:22:29.092Z,100501.84
2022-11-03T02:25:07.440Z,100504.63
2022-11-03T02:27:36.824Z,100502.31
2022-11-03T02:30:05.317Z,100509.38
2022-11-03T02:32:40.220Z,100506.75
2022-11-03T02:35:15.316Z,100497.41
2022-11-03T02:37:47.264Z,100502.19
2022-11-03T02:40:18.916Z,100485.84
2022-11-03T02:42:51.995Z,100468.25
2022-11-03T02:45:23.751Z,100455.06
2022-11-03T02:47:54.435Z,100454.22
2022-11-03T02:50:27.180Z,100445.59
2022-11-03T02:52:55.172Z,100434.66
2022-11-03T02:55:32.906Z,100435.59
2022-11-03T02:58:08.893Z,100427.50
2022-11-03T03:00:44.536Z,100414.16
2022-11-03T03:03:17.536Z,100399.00
2022-11-03T03:05:46.853Z,100389.19
2022-11-03T03:08:16.702Z,100394.81
2022-11-03T03:10:47.869Z,100379.91
2022-11-03T03:13:20.737Z,100384.44
2022-11-03T03:15:55.076Z,100387.19
2022-11-03T03:18:29.053Z,100380.72
2022-11-03T03:21:03.252Z,100371.28
2022-11-03T03:23:34.984Z,100367.22
2022-11-03T03:26:06.148Z,100369.63
2022-11-03T03:28:39.723Z,100375.34
2022-11-03T03:31:10.433Z,100366.81
2022-11-03T03:33:42.111Z,100367.69
2022-11-03T03:36:17.000Z,100354.66
2022-11-03T03:38:50.110Z,100355.28
2022-11-03T03:41:22.072Z,100338.88
2022-11-03T03:43:54.620Z,100332.75
2022-11-03T03:46:24.252Z,100329.09
2022-11-03T03:48:52.057Z,100319.63
2022-11-03T03:51:23.699Z,100307.47
2022-11-03T03:53:52.514Z,100309.91
2022-11-03T03:56:24.829Z,100304.78
2022-11-03T03:58:53.892Z,100300.13
2022-11-03T04:01:21.627Z,100288.66
2022-11-03T04:03:49.368Z,100274.16
2022-11-03T04:06:17.182Z,100271.91
2022-11-03T04:08:44.864Z,100265.31
2022-11-03T04:11:29.915Z,100262.25
2022-11-03T04:14:16.530Z,100259.06
2022-11-03T04:17:01.887Z,100253.69
2022-11-03T04:19:58.672Z,100247.91
2022-11-03T04:22:28.459Z,100254.66
2022-11-03T04:24:56.317Z,100247.84
2022-11-03T04:27:30.397Z,100260.56
2022-11-03T04:30:08.678Z,100254.38
2022-11-03T04:32:37.160Z,100250.56
2022-11-03T04:35:15.512Z,100243.13
2022-11-03T04:37:47.492Z,100239.25
2022-11-03T04:40:17.442Z,100225.88
2022-11-03T04:42:46.179Z,100219.78
2022-11-03T04:45:23.354Z,100207.22
2022-11-03T04:47:51.314Z,100200.66
2022-11-03T04:50:21.470Z,100189.63
2022-11-03T04:52:50.026Z,100191.56
2022-11-03T04:55:19.522Z,100176.91
2022-11-03T04:57:47.704Z,100169.09
2022-11-03T05:00:19.623Z,100166.88
2022-11-03T05:02:53.115Z,100167.63
2022-11-03T05:05:25.391Z,100160.31
2022-11-03T05:07:55.679Z,100155.41
2022-11-03T05:10:26.475Z,100142.47
2022-11-03T05:12:55.376Z,100146.59
2022-11-03T05:15:38.087Z,100139.75
2022-11-03T05:18:17.167Z,100137.78
2022-11-03T05:20:50.605Z,100133.78
2022-11-03T05:23:20.585Z,100122.13
2022-11-03T05:25:50.558Z,100118.34
2022-11-03T05:28:25.363Z,100106.78
2022-11-03T05:30:55.415Z,100103.97
2022-11-03T05:33:29.564Z,100106.88
2022-11-03T05:35:59.604Z,100099.06
2022-11-03T05:38:31.518Z,100097.59
2022-11-03T05:41:00.175Z,100097.84
2022-11-03T05:43:29.876Z,100089.78
2022-11-03T05:46:03.137Z,100086.72
2022-11-03T05:48:32.549Z,100078.53
2022-11-03T05:51:01.893Z,100079.38
2022-11-03T05:53:32.005Z,100074.97
2022-11-03T05:56:03.334Z,100064.59
2022-11-03T05:58:36.050Z,100048.47
2022-11-03T06:01:11.860Z,100044.94
2022-11-03T06:03:40.712Z,100042.72
2022-11-03T06:06:17.306Z,100024.00
2022-11-03T06:08:46.307Z,100013.75
2022-11-03T06:11:22.430Z,100007.25
2022-11-03T06:13:50.142Z,100004.16
2022-11-03T06:16:41.357Z,99993.06
2022-11-03T06:19:19.932Z,99989.16
2022-11-03T06:21:49.059Z,99990.88
2022-11-03T06:24:18.897Z,99988.59
2022-11-03T06:26:49.099Z,99985.91
2022-11-03T06:29:19.263Z,99978.41
2022-11-03T06:31:50.642Z,99978.81
2022-11-03T06:34:35.347Z,99975.41
2022-11-03T06:37:13.508Z,99974.69
2022-11-03T06:39:41.502Z,99983.97
2022-11-03T06:42:14.258Z,99967.00
2022-11-03T06:44:43.785Z,99964.94
2022-11-03T06:47:23.008Z,99965.94
2022-11-03T06:49:52.107Z,99958.53
2022-11-03T06:52:31.352Z,99953.22
2022-11-03T06:55:15.782Z,99944.59
2022-11-03T06:57:47.472Z,99946.81
2022-11-03T07:00:33.974Z,99938.47
2022-11-03T07:03:09.948Z,99937.16
2022-11-03T07:05:39.003Z,99923.91
2022-11-03T07:08:19.228Z,99918.28
2022-11-03T07:10:47.046Z,99914.28
2022-11-03T07:13:19.388Z,99923.56
2022-11-03T07:15:47.476Z,99918.66
2022-11-03T07:18:23.548Z,99905.31
2022-11-03T07:20:52.887Z,99913.75
2022-11-03T07:23:23.608Z,99904.00
2022-11-03T07:25:54.517Z,99899.78
2022-11-03T07:28:25.550Z,99897.19
2022-11-03T07:30:53.372Z,99891.38
2022-11-03T07:33:26.433Z,99896.44
2022-11-03T07:38:47.356Z,99883.25
2022-11-03T07:41:19.652Z,99874.53
2022-11-03T07:43:52.518Z,99884.91
2022-11-03T07:46:22.041Z,99899.84
2022-11-03T07:48:53.232Z,99899.78
2022-11-03T07:51:24.422Z,99902.59
2022-11-03T07:53:54.258Z,99904.72
2022-11-03T07:56:24.374Z,99898.25
2022-11-03T07:58:54.441Z,99916.94
2022-11-03T08:01:26.747Z,99912.69
2022-11-03T08:03:59.020Z,99918.94
2022-11-03T08:06:26.888Z,99933.81
2022-11-03T08:08:54.552Z,99939.81
2022-11-03T08:11:26.083Z,99936.44
2022-11-03T08:13:56.878Z,99936.47
2022-11-03T08:16:24.581Z,99924.97
2022-11-03T08:18:52.288Z,99943.16
2022-11-03T08:21:21.375Z,99946.28
2022-11-03T08:23:49.113Z,99964.75
2022-11-03T08:26:16.944Z,99969.34
2022-11-03T08:28:44.808Z,99988.41
2022-11-03T08:31:13.316Z,99993.91
2022-11-03T08:33:41.766Z,99992.50
2022-11-03T08:36:10.200Z,100001.16
2022-11-03T08:38:39.635Z,100005.13
2022-11-03T08:41:07.387Z,99996.72
2022-11-03T08:43:35.174Z,99977.53
2022-11-03T08:46:11.400Z,99983.44
2022-11-03T08:48:44.892Z,99974.88
2022-11-03T08:51:13.711Z,99977.38
2022-11-03T08:53:43.839Z,99973.09
2022-11-03T08:56:13.394Z,99978.84
2022-11-03T08:58:42.252Z,99985.97
2022-11-03T09:01:09.971Z,99968.44
2022-11-03T09:03:37.819Z,99969.53
2022-11-03T09:06:05.891Z,99956.38
2022-11-03T09:11:22.685Z,99947.94
2022-11-03T09:13:50.381Z,99949.94
2022-11-03T09:16:18.107Z,99956.16
2022-11-03T09:18:46.555Z,99956.72
2022-11-03T09:21:14.792Z,99961.25
2022-11-03T09:23:42.561Z,99956.72
2022-11-03T09:26:10.322Z,99964.53
2022-11-03T09:28:39.455Z,99956.22
2022-11-03T09:31:08.215Z,99896.41
2022-11-03T09:33:35.999Z,99868.88
2022-11-03T09:36:03.814Z,99899.06
2022-11-03T09:38:31.540Z,99959.84
2022-11-03T09:40:59.609Z,99940.09
2022-11-03T09:43:27.317Z,99947.44
2022-11-03T09:45:56.442Z,99940.94
2022-11-03T09:48:24.301Z,99950.63
2022-11-03T09:50:55.913Z,99955.75
2022-11-03T09:53:23.626Z,99961.97
2022-11-03T09:55:51.398Z,99940.88
2022-11-03T09:58:19.392Z,99945.25
2022-11-03T10:00:47.379Z,99968.22
2022-11-03T10:03:18.699Z,99968.31
2022-11-03T10:05:47.262Z,99960.50
2022-11-03T10:08:22.816Z,99954.56
2022-11-03T10:10:51.039Z,99939.16
2022-11-03T10:13:25.302Z,99939.28
2022-11-03T10:15:53.285Z,99921.31
2022-11-03T10:18:22.549Z,99922.00
2022-11-03T10:20:50.341Z,99918.34
2022-11-03T10:23:18.065Z,99915.56
2022-11-03T10:25:46.727Z,99921.78
2022-11-03T10:28:20.244Z,99930.16
2022-11-03T10:33:51.361Z,99946.41
2022-11-03T10:36:26.915Z,99959.81
2022-11-03T10:38:55.492Z,99974.81
2022-11-03T10:41:24.706Z,99985.06
2022-11-03T10:44:04.819Z,99992.28
2022-11-03T10:49:22.396Z,100002.31
2022-11-03T10:51:52.427Z,99989.78
2022-11-03T10:54:22.561Z,99983.84
2022-11-03T10:56:51.892Z,99971.16
2022-11-03T10:59:21.929Z,99968.25
2022-11-03T11:01:49.920Z,99985.59
2022-11-03T11:04:19.048Z,99986.66
2022-11-03T11:06:49.328Z,99968.25
2022-11-03T11:09:21.986Z,99953.34
2022-11-03T11:12:08.386Z,99953.34
2022-11-03T11:14:39.390Z,99960.91
2022-11-03T11:17:27.797Z,99971.91
2022-11-03T11:20:30.779Z,99971.53
2022-11-03T11:23:44.518Z,99969.72
2022-11-03T11:26:31.591Z,99969.47
2022-11-03T11:29:38.857Z,99959.44
2022-11-03T11:32:52.610Z,99964.78
2022-11-03T11:36:06.071Z,99963.06
2022-11-03T11:39:12.121Z,99959.31
2022-11-03T11:42:14.495Z,99968.97
2022-11-03T11:44:57.746Z,99969.22
2022-11-03T11:47:50.746Z,99963.84
2022-11-03T11:50:34.024Z,99963.81
2022-11-03T11:53:12.024Z,99968.13
2022-11-03T11:55:44.063Z,99963.56
2022-11-03T11:58:25.457Z,99977.22
2022-11-03T12:00:59.805Z,99980.69
2022-11-03T12:03:34.155Z,99978.16
2022-11-03T12:06:01.865Z,99984.97
2022-11-03T12:08:31.962Z,99990.38
2022-11-03T12:11:03.342Z,99989.53
2022-11-03T12:13:48.988Z,99992.69
2022-11-03T12:16:30.398Z,99988.13
2022-11-03T12:19:01.456Z,99987.03
2022-11-03T12:21:48.824Z,99981.44
2022-11-03T12:24:38.560Z,99991.34
2022-11-03T12:27:41.266Z,99995.41
2022-11-03T12:30:15.297Z,99993.59
2022-11-03T12:32:43.021Z,99985.66
2022-11-03T12:35:13.472Z,99983.59
2022-11-03T12:37:42.062Z,99991.22
2022-11-03T12:40:12.281Z,99993.50
2022-11-03T12:42:41.413Z,99981.94
2022-11-03T12:45:10.199Z,99987.69
2022-11-03T12:47:37.885Z,99992.59
2022-11-03T12:50:06.039Z,99989.16
2022-11-03T12:52:33.737Z,99995.94
2022-11-03T12:55:01.533Z,99993.63
2022-11-03T12:57:29.234Z,100008.53
2022-11-03T12:59:58.384Z,100003.03
2022-11-03T13:02:26.304Z,100007.97
2022-11-03T13:04:55.965Z,100011.56
2022-11-03T13:07:27.954Z,100002.22
2022-11-03T13:09:59.721Z,100016.50
2022-11-03T13:12:34.068Z,100016.22
2022-11-03T13:15:05.249Z,100011.34
2022-11-03T13:17:52.070Z,100016.16
2022-11-03T13:20:21.552Z,100018.28
2022-11-03T13:22:49.432Z,100018.47
2022-11-03T13:25:17.678Z,100013.59
2022-11-03T13:27:45.777Z,100013.13
2022-11-03T13:30:15.317Z,100003.84
2022-11-03T13:32:42.991Z,100005.91
2022-11-03T13:35:13.961Z,100004.56
2022-11-03T13:37:42.084Z,100010.91
2022-11-03T13:40:29.362Z,100004.00
2022-11-03T13:42:59.266Z,100015.22
2022-11-03T13:45:28.629Z,100010.03
2022-11-03T13:48:37.835Z,100001.34
2022-11-03T13:50:45.170Z,100008.53
2022-11-03T13:56:05.817Z,100007.47
2022-11-03T14:01:25.661Z,99999.81
2022-11-03T14:06:41.711Z,100012.31
2022-11-03T14:09:10.301Z,100009.28
2022-11-03T14:11:57.873Z,100003.19
2022-11-03T14:14:25.580Z,100013.13
2022-11-03T14:16:54.970Z,100013.09
2022-11-03T14:19:28.800Z,100013.88
2022-11-03T14:22:03.331Z,100018.56
2022-11-03T14:24:31.028Z,100022.50
2022-11-03T14:26:59.092Z,100019.38
2022-11-03T14:29:27.012Z,100029.06
2022-11-03T14:31:56.225Z,100028.22
2022-11-03T14:34:24.078Z,100027.97
2022-11-03T14:36:52.034Z,100031.59
2022-11-03T14:39:19.868Z,100025.16
2022-11-03T14:42:04.790Z,100018.88
2022-11-03T14:44:33.787Z,100018.97
2022-11-03T14:47:03.998Z,100022.06
2022-11-03T14:49:32.625Z,100020.91
2022-11-03T14:52:01.702Z,100018.50
2022-11-03T14:54:30.576Z,100017.66
2022-11-03T14:56:58.740Z,100026.41
2022-11-03T14:59:27.185Z,100025.03
2022-11-03T15:01:55.814Z,100021.38
2022-11-03T15:04:25.211Z,100029.78
2022-11-03T15:06:53.058Z,100037.03
2022-11-03T15:09:20.853Z,100039.31
2022-11-03T15:11:48.647Z,100037.91
2022-11-03T15:14:16.347Z,100038.44
2022-11-03T15:16:46.019Z,100037.22
2022-11-03T15:19:14.008Z,100052.16
2022-11-03T15:21:43.198Z,100052.63
2022-11-03T15:26:58.771Z,100047.25
2022-11-03T15:29:26.506Z,100046.75
2022-11-03T15:31:54.409Z,100038.50
2022-11-03T15:34:22.085Z,100048.06
2022-11-03T15:36:51.239Z,100049.03
2022-11-03T15:39:18.945Z,100052.38
2022-11-03T15:41:46.692Z,100046.50
2022-11-03T15:44:14.384Z,100045.97
2022-11-03T15:46:42.130Z,100053.06
2022-11-03T15:49:09.802Z,100053.72
2022-11-03T15:51:37.593Z,100050.84
2022-11-03T15:54:06.736Z,100040.84
2022-11-03T15:56:34.637Z,100040.28
2022-11-03T15:59:02.340Z,100040.28
2022-11-03T16:01:30.345Z,100037.59
2022-11-03T16:03:58.223Z,100044.19
2022-11-03T16:06:46.560Z,100042.72
2022-11-03T16:09:14.955Z,100037.81
2022-11-03T16:11:42.655Z,100049.69
2022-11-03T16:14:10.469Z,100063.50
2022-11-03T16:16:38.402Z,100067.38
2022-11-03T16:19:06.088Z,100073.03
2022-11-03T16:21:33.839Z,100057.03
2022-11-03T16:24:01.672Z,100053.13
2022-11-03T16:26:31.577Z,100059.22
2022-11-03T16:28:59.326Z,100057.28
2022-11-03T16:31:27.588Z,100057.63
2022-11-03T16:33:55.293Z,100047.09
2022-11-03T16:36:23.062Z,100047.03
2022-11-03T16:38:50.755Z,100054.09
2022-11-03T16:41:18.664Z,100058.13
2022-11-03T16:43:49.709Z,100057.84
2022-11-03T16:46:17.505Z,100055.56
2022-11-03T16:48:45.361Z,100055.19
2022-11-03T16:51:13.768Z,100054.44
2022-11-03T16:53:41.495Z,100058.84
2022-11-03T16:56:09.181Z,100057.03
2022-11-03T16:58:36.884Z,100060.31
2022-11-03T17:01:06.211Z,100060.19
2022-11-03T17:03:34.081Z,100065.81
2022-11-03T17:06:01.817Z,100073.56
2022-11-03T17:08:51.743Z,100067.66
2022-11-03T17:11:35.581Z,100068.34
2022-11-03T17:14:04.446Z,100071.56
2022-11-03T17:16:33.530Z,100078.69
2022-11-03T17:19:01.412Z,100077.78
2022-11-03T17:21:29.120Z,100080.44
2022-11-03T17:23:58.905Z,100076.78
2022-11-03T17:26:31.940Z,100076.63
2022-11-03T17:28:59.729Z,100077.63
2022-11-03T17:31:27.557Z,100073.06
2022-11-03T17:33:57.547Z,100081.13
2022-11-03T17:36:25.478Z,100085.22
2022-11-03T17:38:53.912Z,100094.53
2022-11-03T17:41:21.629Z,100087.38
2022-11-03T17:43:49.324Z,100095.03
2022-11-03T17:46:17.019Z,100092.63
2022-11-03T17:48:44.803Z,100094.34
2022-11-03T17:51:13.936Z,100091.13
2022-11-03T17:53:43.926Z,100103.03
2022-11-03T17:56:33.693Z,100108.97
2022-11-03T17:59:01.978Z,100108.22
2022-11-03T18:01:29.807Z,100100.41
2022-11-03T18:03:58.039Z,100095.13
2022-11-03T18:06:27.148Z,100093.94
2022-11-03T18:08:54.834Z,100093.44
2022-11-03T18:11:44.694Z,100091.72
2022-11-03T18:14:12.892Z,100085.84
2022-11-03T18:16:41.336Z,100096.00
2022-11-03T18:19:12.889Z,100097.47
2022-11-03T18:21:42.063Z,100083.81
2022-11-03T18:24:13.228Z,100076.09
2022-11-03T18:26:41.263Z,100074.53
2022-11-03T18:29:09.773Z,100065.56
2022-11-03T18:31:41.115Z,100060.66
2022-11-03T18:34:16.013Z,100070.72
2022-11-03T18:36:45.229Z,100063.44
2022-11-03T18:39:18.604Z,100062.06
2022-11-03T18:41:46.113Z,100059.84
2022-11-03T18:44:18.788Z,100064.84
2022-11-03T18:46:47.371Z,100064.66
2022-11-03T18:49:15.406Z,100064.09
2022-11-03T18:51:49.500Z,100053.09
2022-11-03T18:56:54.392Z,100062.00
2022-11-03T18:59:24.499Z,100066.34
2022-11-03T19:01:52.403Z,100052.72
2022-11-03T19:04:20.354Z,100062.00
2022-11-03T19:06:51.422Z,100052.34
2022-11-03T19:09:21.939Z,100054.69
2022-11-03T19:11:50.996Z,100048.72
2022-11-03T19:14:24.343Z,100049.34
2022-11-03T19:17:21.288Z,100049.69
2022-11-03T19:19:41.260Z,100045.94
2022-11-03T19:22:14.660Z,100042.75
2022-11-03T19:24:43.075Z,100031.47
2022-11-03T19:27:16.172Z,100032.22
2022-11-03T19:29:45.379Z,100034.06
2022-11-03T19:32:19.562Z,100020.63
2022-11-03T19:34:48.607Z,100016.84
2022-11-03T19:37:17.723Z,100004.16
2022-11-03T19:39:45.530Z,99987.56
2022-11-03T19:42:31.065Z,99980.41
2022-11-03T19:44:59.674Z,99982.09
2022-11-03T19:47:32.511Z,99976.78
2022-11-03T19:50:01.488Z,99968.66
2022-11-03T19:52:32.329Z,99970.50
2022-11-03T19:55:03.333Z,99959.44
2022-11-03T19:57:31.130Z,99967.59
2022-11-03T19:59:59.431Z,99958.88
2022-11-03T20:02:28.220Z,99970.13
2022-11-03T20:04:56.133Z,99975.44
2022-11-03T20:07:31.062Z,99978.22
2022-11-03T20:10:02.534Z,99965.31
2022-11-03T20:12:31.438Z,99956.81
2022-11-03T20:14:59.224Z,99955.00
2022-11-03T20:17:27.232Z,99952.03
2022-11-03T20:19:55.054Z,99952.34
2022-11-03T20:22:29.968Z,99950.09
2022-11-03T20:25:01.566Z,99945.13
2022-11-03T20:27:30.703Z,99947.94
2022-11-03T20:29:58.566Z,99944.53
2022-11-03T20:32:26.538Z,99946.94
2022-11-03T20:34:54.240Z,99948.72
2022-11-03T20:37:22.258Z,99950.53
2022-11-03T20:39:50.352Z,99951.34
2022-11-03T20:42:22.607Z,99947.44
2022-11-03T20:44:51.749Z,99945.59
2022-11-03T20:47:20.854Z,99942.06
2022-11-03T20:49:48.616Z,99946.19
2022-11-03T20:52:17.021Z,99945.63
2022-11-03T20:54:44.953Z,99942.25
2022-11-03T20:57:13.916Z,99935.75
2022-11-03T20:59:41.938Z,99941.06
2022-11-03T21:02:13.678Z,99935.91
2022-11-03T21:04:42.407Z,99937.13
2022-11-03T21:07:12.491Z,99930.41
2022-11-03T21:09:40.566Z,99935.88
2022-11-03T21:12:12.726Z,99917.00
2022-11-03T21:15:02.004Z,99924.91
2022-11-03T21:17:48.540Z,99932.00
2022-11-03T21:20:16.395Z,99930.88
2022-11-03T21:22:53.743Z,99933.97
2022-11-03T21:25:24.377Z,99932.97
2022-11-03T21:27:53.429Z,99933.53
2022-11-03T21:30:21.559Z,99932.25
2022-11-03T21:32:50.628Z,99932.31
2022-11-03T21:35:20.656Z,99940.91
2022-11-03T21:37:48.693Z,99929.38
2022-11-03T21:40:16.496Z,99929.88
2022-11-03T21:43:01.795Z,99922.50
2022-11-03T21:45:29.605Z,99913.44
2022-11-03T21:48:16.647Z,99914.56
2022-11-03T21:50:44.998Z,99909.31
2022-11-03T21:53:13.013Z,99900.88
2022-11-03T21:55:41.084Z,99899.91
2022-11-03T21:58:08.876Z,99887.66
2022-11-03T22:00:36.656Z,99879.94
2022-11-03T22:03:06.054Z,99878.38
2022-11-03T22:05:34.409Z,99879.59
2022-11-03T22:08:02.193Z,99884.97
2022-11-03T22:10:29.916Z,99886.81
2022-11-03T22:12:57.614Z,99881.81
2022-11-03T22:15:42.907Z,99896.16
2022-11-03T22:18:12.461Z,99898.84
2022-11-03T22:20:57.921Z,99893.66
2022-11-03T22:23:43.188Z,99907.19
2022-11-03T22:26:29.975Z,99913.84
2022-11-03T22:29:12.649Z,99902.53
2022-11-03T22:31:43.001Z,99903.44
2022-11-03T22:34:29.536Z,99901.31
2022-11-03T22:36:57.247Z,99901.22
2022-11-03T22:39:57.258Z,99880.56
2022-11-03T22:45:32.323Z,99872.41
2022-11-03T22:47:59.999Z,99873.50
2022-11-03T22:50:29.136Z,99867.41
2022-11-03T22:52:56.803Z,99873.41
2022-11-03T22:55:23.672Z,99885.34
2022-11-03T22:57:51.356Z,99897.47
2022-11-03T23:00:20.442Z,99899.69
2022-11-03T23:02:48.366Z,99900.97
2022-11-03T23:05:16.300Z,99893.66
2022-11-03T23:07:45.365Z,99901.31
2022-11-03T23:10:13.112Z,99884.53
2022-11-03T23:12:40.781Z,99889.75
2022-11-03T23:15:27.014Z,99887.38
2022-11-03T23:18:12.427Z,99872.50
2022-11-03T23:20:57.705Z,99869.13
2022-11-03T23:23:44.365Z,99853.16
2022-11-03T23:26:12.326Z,99860.63
2022-11-03T23:28:40.144Z,99862.16
2022-11-03T23:31:08.443Z,99854.59
2022-11-03T23:33:36.386Z,99837.50
2022-11-03T23:36:04.980Z,99847.06
2022-11-03T23:38:34.927Z,99843.44
2022-11-03T23:41:03.017Z,99835.59
2022-11-03T23:43:30.840Z,99829.00
2022-11-03T23:46:16.087Z,99833.94
2022-11-03T23:48:46.665Z,99842.25
2022-11-03T23:51:15.874Z,99849.28
2022-11-03T23:53:46.635Z,99854.06
2022-11-03T23:56:33.732Z,99845.06
2022-11-03T23:59:02.035Z,99830.59
